Berta — V2BQ6 — position and weather

sailwx.info

Track history (hours):
 
Tides and Currents Weather Stations Pressure Air Temp Water Temp Dewpoint Dewpoint Depression Visibility Wind Speed Wind Dir Waves Ship Positions

Berta

Last reported at 2017-Jul-20 21:50 UTC. Time now 2017-Jul-22 06:32 UTC.
Position N 39°29' W 009°50'.

Length 118 m; draft 6.4 m.

Type: Cargo ship. MMSI: 304586000.

Date/timePositionNaut miles runAvg speedWind from/ knotsBaromVisibWave heightAir tempDewpointWater temp
2017-Jul-20 21:50N 39°29' W 009°50'410.9
2017-Jul-20 21:27N 39°24' W 009°50'510.8
2017-Jul-20 21:00N 39°20' W 009°50'510.9
2017-Jul-20 20:30N 39°14' W 009°50'510.8
2017-Jul-20 20:00N 39°09' W 009°50'510.9
2017-Jul-20 19:30N 39°03' W 009°50'611.1
2017-Jul-20 19:00N 38°58' W 009°51'611.1
2017-Jul-20 18:31N 38°52' W 009°51'510.9
2017-Jul-20 18:00N 38°47' W 009°51'511.0
2017-Jul-20 17:31N 38°41' W 009°50'510.8
2017-Jul-20 17:00N 38°36' W 009°48'510.7
2017-Jul-20 16:30N 38°31' W 009°47'510.7
2017-Jul-20 16:01N 38°26' W 009°46'510.7
2017-Jul-20 15:30N 38°20' W 009°44'510.8
2017-Jul-20 15:01N 38°15' W 009°43'1111.0
2017-Jul-20 14:00N 38°04' W 009°40'510.9
2017-Jul-20 13:30N 37°59' W 009°38'610.7
2017-Jul-20 12:55N 37°53' W 009°36'511.3
2017-Jul-20 12:30N 37°48' W 009°35'611.4
2017-Jul-20 11:58N 37°42' W 009°33'511.3
2017-Jul-20 11:30N 37°37' W 009°32'6210.6
2017-Jul-20 05:41N 36°42' W 008°59'511.7
2017-Jul-20 05:16N 36°40' W 008°53'311.7
2017-Jul-20 05:00N 36°39' W 008°49'13411.3
2017-Jul-19 17:12N 35°58' W 006°11'2011.8
2017-Jul-19 15:29N 35°58' W 005°46'17810.4
2017-Jul-18 22:28N 36°16' W 002°07'2111.2
2017-Jul-18 20:37N 36°14' W 001°41'111.6
2017-Jul-18 20:30N 36°14' W 001°40'3412.2
2017-Jul-18 17:43N 36°12' W 000°58'312.6
2017-Jul-18 17:30N 36°11' W 000°55'612.5
2017-Jul-18 17:00N 36°10' W 000°47'612.9
2017-Jul-18 16:30N 36°08' W 000°40'612.8
2017-Jul-18 16:01N 36°06' W 000°32'712.7
2017-Jul-18 15:29N 36°04' W 000°24'612.5
2017-Jul-18 14:58N 36°02' W 000°17'1212.2
2017-Jul-18 14:00N 35°58' W 000°03'6 1.1
2017-Jul-18 08:26N 35°56' E 000°05'0 0.0
2017-Jul-18 07:12N 35°56' E 000°05'0 0.0
2017-Jul-18 07:00N 35°56' E 000°05'0 0.0
2017-Jul-18 06:26N 35°56' E 000°05'0 0.0
2017-Jul-18 06:00N 35°56' E 000°05'0 0.0
2017-Jul-18 05:30N 35°56' E 000°05'0 0.0
2017-Jul-18 05:00N 35°56' E 000°05'0 0.0
2017-Jul-18 03:53N 35°56' E 000°05'0 0.0
2017-Jul-18 03:29N 35°56' E 000°05'0 0.0
2017-Jul-18 02:43N 35°56' E 000°05'0 0.0
2017-Jul-18 02:27N 35°56' E 000°05'0 0.0
2017-Jul-18 02:00N 35°56' E 000°05'0 0.0
2017-Jul-18 01:30N 35°56' E 000°05'0 0.0
2017-Jul-18 00:28N 35°56' E 000°05'0 0.0
2017-Jul-17 23:13N 35°56' E 000°05'16 5.3
2017-Jul-17 20:06N 36°12' E 000°09'111.5
2017-Jul-17 20:00N 36°13' E 000°10'611.5
2017-Jul-17 19:30N 36°18' E 000°14'611.5
2017-Jul-17 19:00N 36°23' E 000°17'611.6
2017-Jul-17 18:29N 36°27' E 000°23'611.9
2017-Jul-17 18:00N 36°30' E 000°29'712.0
2017-Jul-17 17:26N 36°34' E 000°36'712.1
2017-Jul-17 16:53N 36°37' E 000°43'512.6
2017-Jul-17 16:30N 36°39' E 000°49'612.7
2017-Jul-17 16:00N 36°41' E 000°56'1912.8
2017-Jul-17 14:33N 36°49' E 001°18'112.8
2017-Jul-17 14:29N 36°49' E 001°19'812.9
2017-Jul-17 13:54N 36°49' E 001°28'513.0
2017-Jul-17 13:30N 36°50' E 001°34'612.6
2017-Jul-17 13:00N 36°51' E 001°42'712.9
2017-Jul-17 12:28N 36°52' E 001°51'613.1
2017-Jul-17 12:00N 36°53' E 001°58'1312.9
2017-Jul-17 11:01N 36°54' E 002°14'013.1
2017-Jul-17 10:59N 36°54' E 002°15'4512.5
2017-Jul-17 07:21N 37°01' E 003°11'  
2017-Jul-14 04:40N 36°46' E 003°04'0 0.0
2017-Jul-14 04:28N 36°46' E 003°04'0 0.0
2017-Jul-14 03:34N 36°46' E 003°04'0 0.1
2017-Jul-14 03:19N 36°46' E 003°04'0 0.0
2017-Jul-14 02:59N 36°46' E 003°04'0 0.0
2017-Jul-13 14:04N 36°46' E 003°04'0 0.0
2017-Jul-13 13:43N 36°46' E 003°04'0 0.0
2017-Jul-13 13:28N 36°46' E 003°04'0 0.0
2017-Jul-13 12:25N 36°46' E 003°04'0 0.0
2017-Jul-13 11:58N 36°46' E 003°04'0 0.0
2017-Jul-13 11:28N 36°46' E 003°04'0 0.0
2017-Jul-13 01:22N 36°46' E 003°04'0 0.0
2017-Jul-13 00:52N 36°46' E 003°04'0 0.0
2017-Jul-13 00:28N 36°46' E 003°04'0 0.0
2017-Jul-12 23:55N 36°46' E 003°04'0 0.0
2017-Jul-12 23:25N 36°46' E 003°04'0 0.0
2017-Jul-12 22:55N 36°46' E 003°04'0 0.0
2017-Jul-12 22:28N 36°46' E 003°04'0 0.0
2017-Jul-12 21:58N 36°46' E 003°04'0 0.0
2017-Jul-12 21:28N 36°46' E 003°04'0 0.0
2017-Jul-12 20:49N 36°46' E 003°04'0 0.0
2017-Jul-12 20:28N 36°46' E 003°04'0 0.0
2017-Jul-12 19:55N 36°46' E 003°04'0 0.0
2017-Jul-12 19:28N 36°46' E 003°04'0 0.0
2017-Jul-12 18:55N 36°46' E 003°04'0 0.0
2017-Jul-12 18:28N 36°46' E 003°04'0 0.0
2017-Jul-12 17:58N 36°46' E 003°04'0 0.0
2017-Jul-12 17:25N 36°46' E 003°04'0 0.0
2017-Jul-12 16:37N 36°46' E 003°04'0 0.0
2017-Jul-12 16:28N 36°46' E 003°04'0 0.0
2017-Jul-12 15:58N 36°46' E 003°04'0 0.0
2017-Jul-12 14:37N 36°46' E 003°04'0 0.0
2017-Jul-12 13:58N 36°46' E 003°04'0 0.0
2017-Jul-12 13:22N 36°46' E 003°04'0 0.0
2017-Jul-12 12:49N 36°46' E 003°04'0 0.0
2017-Jul-12 12:13N 36°46' E 003°04'0 0.0
2017-Jul-12 11:49N 36°46' E 003°04'0 0.0
2017-Jul-12 11:28N 36°46' E 003°04'0 0.0
2017-Jul-12 10:52N 36°46' E 003°04'0 0.0
2017-Jul-12 10:22N 36°46' E 003°04'0 0.0
2017-Jul-12 09:58N 36°46' E 003°04'0 0.0
2017-Jul-12 08:25N 36°46' E 003°04'0 0.0
2017-Jul-12 07:57N 36°46' E 003°04'0 0.0
2017-Jul-12 07:28N 36°46' E 003°04'0 0.0
2017-Jul-12 07:00N 36°46' E 003°04'0 0.0
2017-Jul-12 06:30N 36°46' E 003°04'0 0.0
2017-Jul-12 06:00N 36°46' E 003°04'1 2.6
2017-Jul-12 05:30N 36°46' E 003°05'1 1.3
2017-Jul-12 05:00N 36°46' E 003°06'1 1.5
2017-Jul-12 04:30N 36°47' E 003°06'2 3.5
2017-Jul-12 04:00N 36°48' E 003°07'0 0.4
2017-Jul-12 03:27N 36°49' E 003°07'2 5.0
2017-Jul-12 02:59N 36°51' E 003°08'3 5.4
2017-Jul-12 02:30N 36°53' E 003°10'3 5.4
2017-Jul-12 02:00N 36°54' E 003°07'3 6.2
2017-Jul-12 01:30N 36°54' E 003°03'5 9.5
2017-Jul-12 01:00N 36°55' E 002°57'612.6
2017-Jul-12 00:30N 36°54' E 002°49'612.9
2017-Jul-12 00:00N 36°53' E 002°41'612.6
2017-Jul-11 23:30N 36°53' E 002°33'712.4
2017-Jul-11 22:57N 36°53' E 002°25'612.4
2017-Jul-11 22:30N 36°52' E 002°18'612.3
2017-Jul-11 22:00N 36°52' E 002°10'5 9.8
2017-Jul-11 21:30N 36°48' E 002°06'611.1
2017-Jul-11 21:00N 36°46' E 001°59'612.4
2017-Jul-11 20:30N 36°46' E 001°51'510.5
2017-Jul-11 20:00N 36°44' E 001°45'612.7
2017-Jul-11 19:30N 36°42' E 001°38'612.4
2017-Jul-11 19:00N 36°41' E 001°30'712.7
2017-Jul-11 18:29N 36°40' E 001°22'612.6
2017-Jul-11 18:00N 36°38' E 001°15'612.5
2017-Jul-11 17:30N 36°36' E 001°08'812.2
2017-Jul-11 16:52N 36°34' E 000°58'712.5
2017-Jul-11 16:17N 36°31' E 000°50'412.7
2017-Jul-11 16:00N 36°30' E 000°45'4013.0
2017-Jul-11 12:56N 36°07' E 000°05'712.2
2017-Jul-11 12:23N 36°00' E 000°04'4 0.6
2017-Jul-11 05:41N 35°56' E 000°05'0 0.0
2017-Jul-11 05:26N 35°56' E 000°05'2 1.8
2017-Jul-11 04:29N 35°57' E 000°02'3 4.1
2017-Jul-11 03:51N 35°57' W 000°01'2313.1
2017-Jul-11 02:05N 36°04' W 000°28'413.4
2017-Jul-11 01:47N 36°04' W 000°33'  
Track history (hours):
 
Tides and Currents Weather Stations Pressure Air Temp Water Temp Dewpoint Dewpoint Depression Visibility Wind Speed Wind Dir Waves Ship Positions

Berta

Last reported at 2017-Jul-20 21:50 UTC. Time now 2017-Jul-22 06:32 UTC.
Position N 39°29' W 009°50'.

Length 118 m; draft 6.4 m.

Type: Cargo ship. MMSI: 304586000.

Date/timePositionNaut miles runAvg speedWind from/ knotsBaromVisibWave heightAir tempDewpointWater temp
2017-Jul-20 21:50N 39°29' W 009°50'410.9
2017-Jul-20 21:27N 39°24' W 009°50'510.8
2017-Jul-20 21:00N 39°20' W 009°50'510.9
2017-Jul-20 20:30N 39°14' W 009°50'510.8
2017-Jul-20 20:00N 39°09' W 009°50'510.9
2017-Jul-20 19:30N 39°03' W 009°50'611.1
2017-Jul-20 19:00N 38°58' W 009°51'611.1
2017-Jul-20 18:31N 38°52' W 009°51'510.9
2017-Jul-20 18:00N 38°47' W 009°51'511.0
2017-Jul-20 17:31N 38°41' W 009°50'510.8
2017-Jul-20 17:00N 38°36' W 009°48'510.7
2017-Jul-20 16:30N 38°31' W 009°47'510.7
2017-Jul-20 16:01N 38°26' W 009°46'510.7
2017-Jul-20 15:30N 38°20' W 009°44'510.8
2017-Jul-20 15:01N 38°15' W 009°43'1111.0
2017-Jul-20 14:00N 38°04' W 009°40'510.9
2017-Jul-20 13:30N 37°59' W 009°38'610.7
2017-Jul-20 12:55N 37°53' W 009°36'511.3
2017-Jul-20 12:30N 37°48' W 009°35'611.4
2017-Jul-20 11:58N 37°42' W 009°33'511.3
2017-Jul-20 11:30N 37°37' W 009°32'6210.6
2017-Jul-20 05:41N 36°42' W 008°59'511.7
2017-Jul-20 05:16N 36°40' W 008°53'311.7
2017-Jul-20 05:00N 36°39' W 008°49'13411.3
2017-Jul-19 17:12N 35°58' W 006°11'2011.8
2017-Jul-19 15:29N 35°58' W 005°46'17810.4
2017-Jul-18 22:28N 36°16' W 002°07'2111.2
2017-Jul-18 20:37N 36°14' W 001°41'111.6
2017-Jul-18 20:30N 36°14' W 001°40'3412.2
2017-Jul-18 17:43N 36°12' W 000°58'312.6
2017-Jul-18 17:30N 36°11' W 000°55'612.5
2017-Jul-18 17:00N 36°10' W 000°47'612.9
2017-Jul-18 16:30N 36°08' W 000°40'612.8
2017-Jul-18 16:01N 36°06' W 000°32'712.7
2017-Jul-18 15:29N 36°04' W 000°24'612.5
2017-Jul-18 14:58N 36°02' W 000°17'1212.2
2017-Jul-18 14:00N 35°58' W 000°03'6 1.1
2017-Jul-18 08:26N 35°56' E 000°05'0 0.0
2017-Jul-18 07:12N 35°56' E 000°05'0 0.0
2017-Jul-18 07:00N 35°56' E 000°05'0 0.0
2017-Jul-18 06:26N 35°56' E 000°05'0 0.0
2017-Jul-18 06:00N 35°56' E 000°05'0 0.0
2017-Jul-18 05:30N 35°56' E 000°05'0 0.0
2017-Jul-18 05:00N 35°56' E 000°05'0 0.0
2017-Jul-18 03:53N 35°56' E 000°05'0 0.0
2017-Jul-18 03:29N 35°56' E 000°05'0 0.0
2017-Jul-18 02:43N 35°56' E 000°05'0 0.0
2017-Jul-18 02:27N 35°56' E 000°05'0 0.0
2017-Jul-18 02:00N 35°56' E 000°05'0 0.0
2017-Jul-18 01:30N 35°56' E 000°05'0 0.0
2017-Jul-18 00:28N 35°56' E 000°05'0 0.0
2017-Jul-17 23:13N 35°56' E 000°05'16 5.3
2017-Jul-17 20:06N 36°12' E 000°09'111.5
2017-Jul-17 20:00N 36°13' E 000°10'611.5
2017-Jul-17 19:30N 36°18' E 000°14'611.5
2017-Jul-17 19:00N 36°23' E 000°17'611.6
2017-Jul-17 18:29N 36°27' E 000°23'611.9
2017-Jul-17 18:00N 36°30' E 000°29'712.0
2017-Jul-17 17:26N 36°34' E 000°36'712.1
2017-Jul-17 16:53N 36°37' E 000°43'512.6
2017-Jul-17 16:30N 36°39' E 000°49'612.7
2017-Jul-17 16:00N 36°41' E 000°56'1912.8
2017-Jul-17 14:33N 36°49' E 001°18'112.8
2017-Jul-17 14:29N 36°49' E 001°19'812.9
2017-Jul-17 13:54N 36°49' E 001°28'513.0
2017-Jul-17 13:30N 36°50' E 001°34'612.6
2017-Jul-17 13:00N 36°51' E 001°42'712.9
2017-Jul-17 12:28N 36°52' E 001°51'613.1
2017-Jul-17 12:00N 36°53' E 001°58'1312.9
2017-Jul-17 11:01N 36°54' E 002°14'013.1
2017-Jul-17 10:59N 36°54' E 002°15'4512.5
2017-Jul-17 07:21N 37°01' E 003°11'  
2017-Jul-14 04:40N 36°46' E 003°04'0 0.0
2017-Jul-14 04:28N 36°46' E 003°04'0 0.0
2017-Jul-14 03:34N 36°46' E 003°04'0 0.1
2017-Jul-14 03:19N 36°46' E 003°04'0 0.0
2017-Jul-14 02:59N 36°46' E 003°04'0 0.0
2017-Jul-13 14:04N 36°46' E 003°04'0 0.0
2017-Jul-13 13:43N 36°46' E 003°04'0 0.0
2017-Jul-13 13:28N 36°46' E 003°04'0 0.0
2017-Jul-13 12:25N 36°46' E 003°04'0 0.0
2017-Jul-13 11:58N 36°46' E 003°04'0 0.0
2017-Jul-13 11:28N 36°46' E 003°04'0 0.0
2017-Jul-13 01:22N 36°46' E 003°04'0 0.0
2017-Jul-13 00:52N 36°46' E 003°04'0 0.0
2017-Jul-13 00:28N 36°46' E 003°04'0 0.0
2017-Jul-12 23:55N 36°46' E 003°04'0 0.0
2017-Jul-12 23:25N 36°46' E 003°04'0 0.0
2017-Jul-12 22:55N 36°46' E 003°04'0 0.0
2017-Jul-12 22:28N 36°46' E 003°04'0 0.0
2017-Jul-12 21:58N 36°46' E 003°04'0 0.0
2017-Jul-12 21:28N 36°46' E 003°04'0 0.0
2017-Jul-12 20:49N 36°46' E 003°04'0 0.0
2017-Jul-12 20:28N 36°46' E 003°04'0 0.0
2017-Jul-12 19:55N 36°46' E 003°04'0 0.0
2017-Jul-12 19:28N 36°46' E 003°04'0 0.0
2017-Jul-12 18:55N 36°46' E 003°04'0 0.0
2017-Jul-12 18:28N 36°46' E 003°04'0 0.0
2017-Jul-12 17:58N 36°46' E 003°04'0 0.0
2017-Jul-12 17:25N 36°46' E 003°04'0 0.0
2017-Jul-12 16:37N 36°46' E 003°04'0 0.0
2017-Jul-12 16:28N 36°46' E 003°04'0 0.0
2017-Jul-12 15:58N 36°46' E 003°04'0 0.0
2017-Jul-12 14:37N 36°46' E 003°04'0 0.0
2017-Jul-12 13:58N 36°46' E 003°04'0 0.0
2017-Jul-12 13:22N 36°46' E 003°04'0 0.0
2017-Jul-12 12:49N 36°46' E 003°04'0 0.0
2017-Jul-12 12:13N 36°46' E 003°04'0 0.0
2017-Jul-12 11:49N 36°46' E 003°04'0 0.0
2017-Jul-12 11:28N 36°46' E 003°04'0 0.0
2017-Jul-12 10:52N 36°46' E 003°04'0 0.0
2017-Jul-12 10:22N 36°46' E 003°04'0 0.0
2017-Jul-12 09:58N 36°46' E 003°04'0 0.0
2017-Jul-12 08:25N 36°46' E 003°04'0 0.0
2017-Jul-12 07:57N 36°46' E 003°04'0 0.0
2017-Jul-12 07:28N 36°46' E 003°04'0 0.0
2017-Jul-12 07:00N 36°46' E 003°04'0 0.0
2017-Jul-12 06:30N 36°46' E 003°04'0 0.0
2017-Jul-12 06:00N 36°46' E 003°04'1 2.6
2017-Jul-12 05:30N 36°46' E 003°05'1 1.3
2017-Jul-12 05:00N 36°46' E 003°06'1 1.5
2017-Jul-12 04:30N 36°47' E 003°06'2 3.5
2017-Jul-12 04:00N 36°48' E 003°07'0 0.4
2017-Jul-12 03:27N 36°49' E 003°07'2 5.0
2017-Jul-12 02:59N 36°51' E 003°08'3 5.4
2017-Jul-12 02:30N 36°53' E 003°10'3 5.4
2017-Jul-12 02:00N 36°54' E 003°07'3 6.2
2017-Jul-12 01:30N 36°54' E 003°03'5 9.5
2017-Jul-12 01:00N 36°55' E 002°57'612.6
2017-Jul-12 00:30N 36°54' E 002°49'612.9
2017-Jul-12 00:00N 36°53' E 002°41'612.6
2017-Jul-11 23:30N 36°53' E 002°33'712.4
2017-Jul-11 22:57N 36°53' E 002°25'612.4
2017-Jul-11 22:30N 36°52' E 002°18'612.3
2017-Jul-11 22:00N 36°52' E 002°10'5 9.8
2017-Jul-11 21:30N 36°48' E 002°06'611.1
2017-Jul-11 21:00N 36°46' E 001°59'612.4
2017-Jul-11 20:30N 36°46' E 001°51'510.5
2017-Jul-11 20:00N 36°44' E 001°45'612.7
2017-Jul-11 19:30N 36°42' E 001°38'612.4
2017-Jul-11 19:00N 36°41' E 001°30'712.7
2017-Jul-11 18:29N 36°40' E 001°22'612.6
2017-Jul-11 18:00N 36°38' E 001°15'612.5
2017-Jul-11 17:30N 36°36' E 001°08'812.2
2017-Jul-11 16:52N 36°34' E 000°58'712.5
2017-Jul-11 16:17N 36°31' E 000°50'412.7
2017-Jul-11 16:00N 36°30' E 000°45'4013.0
2017-Jul-11 12:56N 36°07' E 000°05'712.2
2017-Jul-11 12:23N 36°00' E 000°04'4 0.6
2017-Jul-11 05:41N 35°56' E 000°05'0 0.0
2017-Jul-11 05:26N 35°56' E 000°05'2 1.8
2017-Jul-11 04:29N 35°57' E 000°02'3 4.1
2017-Jul-11 03:51N 35°57' W 000°01'2313.1
2017-Jul-11 02:05N 36°04' W 000°28'413.4
2017-Jul-11 01:47N 36°04' W 000°33'  

Dump ship's entire track history